sensor_id;sensor_type;location;lat;lon;timestamp;temperature;humidity
7384;DHT22;3733;47.994;8.820;2023-09-19T00:01:06;14.90;99.90
7384;DHT22;3733;47.994;8.820;2023-09-19T00:03:37;14.90;99.90
7384;DHT22;3733;47.994;8.820;2023-09-19T00:06:04;14.90;99.90
7384;DHT22;3733;47.994;8.820;2023-09-19T00:08:30;14.90;99.90
7384;DHT22;3733;47.994;8.820;2023-09-19T00:10:56;14.90;99.90
7384;DHT22;3733;47.994;8.820;2023-09-19T00:13:29;14.90;99.90
7384;DHT22;3733;47.994;8.820;2023-09-19T00:15:56;14.90;99.90
7384;DHT22;3733;47.994;8.820;2023-09-19T00:18:24;14.90;99.90
7384;DHT22;3733;47.994;8.820;2023-09-19T00:20:57;14.90;99.90
7384;DHT22;3733;47.994;8.820;2023-09-19T00:23:23;14.90;99.90
7384;DHT22;3733;47.994;8.820;2023-09-19T00:25:50;14.90;99.90
7384;DHT22;3733;47.994;8.820;2023-09-19T00:28:17;14.90;99.90
7384;DHT22;3733;47.994;8.820;2023-09-19T00:30:44;14.90;99.90
7384;DHT22;3733;47.994;8.820;2023-09-19T00:33:10;14.90;99.90
7384;DHT22;3733;47.994;8.820;2023-09-19T00:35:50;15.00;99.90
7384;DHT22;3733;47.994;8.820;2023-09-19T00:38:16;15.00;99.90
7384;DHT22;3733;47.994;8.820;2023-09-19T00:40:46;15.00;99.90
7384;DHT22;3733;47.994;8.820;2023-09-19T00:43:12;15.10;99.90
7384;DHT22;3733;47.994;8.820;2023-09-19T00:45:38;15.10;99.90
7384;DHT22;3733;47.994;8.820;2023-09-19T00:48:04;15.10;99.90
7384;DHT22;3733;47.994;8.820;2023-09-19T00:50:31;15.10;99.90
7384;DHT22;3733;47.994;8.820;2023-09-19T00:52:58;15.10;99.90
7384;DHT22;3733;47.994;8.820;2023-09-19T00:55:25;15.10;99.90
7384;DHT22;3733;47.994;8.820;2023-09-19T00:57:51;15.10;99.90
7384;DHT22;3733;47.994;8.820;2023-09-19T01:00:18;15.10;99.90
7384;DHT22;3733;47.994;8.820;2023-09-19T01:02:46;15.10;99.90
7384;DHT22;3733;47.994;8.820;2023-09-19T01:05:12;15.00;99.90
7384;DHT22;3733;47.994;8.820;2023-09-19T01:07:38;15.10;99.90
7384;DHT22;3733;47.994;8.820;2023-09-19T01:10:09;15.00;99.90
7384;DHT22;3733;47.994;8.820;2023-09-19T01:15:17;15.00;99.90
7384;DHT22;3733;47.994;8.820;2023-09-19T01:17:51;15.00;99.90
7384;DHT22;3733;47.994;8.820;2023-09-19T01:29:44;15.10;99.90
7384;DHT22;3733;47.994;8.820;2023-09-19T01:32:11;15.10;99.90
7384;DHT22;3733;47.994;8.820;2023-09-19T01:37:13;15.10;99.90
7384;DHT22;3733;47.994;8.820;2023-09-19T01:39:40;15.10;99.90
7384;DHT22;3733;47.994;8.820;2023-09-19T01:47:22;15.00;99.90
7384;DHT22;3733;47.994;8.820;2023-09-19T01:50:02;15.00;99.90
7384;DHT22;3733;47.994;8.820;2023-09-19T01:52:36;15.00;99.90
7384;DHT22;3733;47.994;8.820;2023-09-19T01:55:09;14.90;99.90
7384;DHT22;3733;47.994;8.820;2023-09-19T01:57:42;15.00;99.90
7384;DHT22;3733;47.994;8.820;2023-09-19T02:00:10;14.90;99.90
7384;DHT22;3733;47.994;8.820;2023-09-19T02:02:43;14.90;99.90
7384;DHT22;3733;47.994;8.820;2023-09-19T02:05:10;14.90;99.90
7384;DHT22;3733;47.994;8.820;2023-09-19T02:07:36;14.90;99.90
7384;DHT22;3733;47.994;8.820;2023-09-19T02:10:04;14.90;99.90
7384;DHT22;3733;47.994;8.820;2023-09-19T02:12:31;14.90;99.90
7384;DHT22;3733;47.994;8.820;2023-09-19T02:14:58;14.90;99.90
7384;DHT22;3733;47.994;8.820;2023-09-19T02:17:24;14.90;99.90
7384;DHT22;3733;47.994;8.820;2023-09-19T02:19:54;14.90;99.90
7384;DHT22;3733;47.994;8.820;2023-09-19T02:22:21;14.90;99.90
7384;DHT22;3733;47.994;8.820;2023-09-19T02:24:46;14.90;99.90
7384;DHT22;3733;47.994;8.820;2023-09-19T02:27:13;14.90;99.90
7384;DHT22;3733;47.994;8.820;2023-09-19T02:29:41;14.90;99.90
7384;DHT22;3733;47.994;8.820;2023-09-19T02:32:07;14.90;99.90
7384;DHT22;3733;47.994;8.820;2023-09-19T02:34:32;14.90;99.90
7384;DHT22;3733;47.994;8.820;2023-09-19T02:37:05;15.00;99.90
7384;DHT22;3733;47.994;8.820;2023-09-19T02:39:31;15.00;99.90
7384;DHT22;3733;47.994;8.820;2023-09-19T02:41:57;15.00;99.90
7384;DHT22;3733;47.994;8.820;2023-09-19T02:44:22;15.00;99.90
7384;DHT22;3733;47.994;8.820;2023-09-19T02:46:49;15.10;99.90
7384;DHT22;3733;47.994;8.820;2023-09-19T02:49:15;15.00;99.90
7384;DHT22;3733;47.994;8.820;2023-09-19T02:51:41;15.10;99.90
7384;DHT22;3733;47.994;8.820;2023-09-19T02:54:07;15.10;99.90
7384;DHT22;3733;47.994;8.820;2023-09-19T02:56:33;15.10;99.90
7384;DHT22;3733;47.994;8.820;2023-09-19T02:58:59;15.10;99.90
7384;DHT22;3733;47.994;8.820;2023-09-19T03:01:26;15.10;99.90
7384;DHT22;3733;47.994;8.820;2023-09-19T03:03:53;15.10;99.90
7384;DHT22;3733;47.994;8.820;2023-09-19T03:06:20;15.10;99.90
7384;DHT22;3733;47.994;8.820;2023-09-19T03:08:47;15.20;99.90
7384;DHT22;3733;47.994;8.820;2023-09-19T03:11:14;15.10;99.90
7384;DHT22;3733;47.994;8.820;2023-09-19T03:13:41;15.10;99.90
7384;DHT22;3733;47.994;8.820;2023-09-19T03:16:08;15.20;99.90
7384;DHT22;3733;47.994;8.820;2023-09-19T03:18:36;15.20;99.90
7384;DHT22;3733;47.994;8.820;2023-09-19T03:21:02;15.20;99.90
7384;DHT22;3733;47.994;8.820;2023-09-19T03:23:28;15.20;99.90
7384;DHT22;3733;47.994;8.820;2023-09-19T03:25:55;15.20;99.90
7384;DHT22;3733;47.994;8.820;2023-09-19T03:28:22;15.20;99.90
7384;DHT22;3733;47.994;8.820;2023-09-19T03:31:03;15.20;99.90
7384;DHT22;3733;47.994;8.820;2023-09-19T03:33:29;15.20;99.90
7384;DHT22;3733;47.994;8.820;2023-09-19T03:35:57;15.20;99.90
7384;DHT22;3733;47.994;8.820;2023-09-19T03:38:25;15.20;99.90
7384;DHT22;3733;47.994;8.820;2023-09-19T03:40:51;15.20;99.90
7384;DHT22;3733;47.994;8.820;2023-09-19T03:43:17;15.20;99.90
7384;DHT22;3733;47.994;8.820;2023-09-19T03:45:43;15.20;99.90
7384;DHT22;3733;47.994;8.820;2023-09-19T03:48:12;15.20;99.90
7384;DHT22;3733;47.994;8.820;2023-09-19T03:50:37;15.10;99.90
7384;DHT22;3733;47.994;8.820;2023-09-19T03:53:04;15.10;99.90
7384;DHT22;3733;47.994;8.820;2023-09-19T03:55:29;15.10;99.90
7384;DHT22;3733;47.994;8.820;2023-09-19T03:57:58;15.10;99.90
7384;DHT22;3733;47.994;8.820;2023-09-19T04:00:23;15.10;99.90
7384;DHT22;3733;47.994;8.820;2023-09-19T04:02:52;15.10;99.90
7384;DHT22;3733;47.994;8.820;2023-09-19T04:05:18;15.10;99.90
7384;DHT22;3733;47.994;8.820;2023-09-19T04:07:44;15.10;99.90
7384;DHT22;3733;47.994;8.820;2023-09-19T04:10:10;15.10;99.90
7384;DHT22;3733;47.994;8.820;2023-09-19T04:12:37;15.10;99.90
7384;DHT22;3733;47.994;8.820;2023-09-19T04:15:03;15.10;99.90
7384;DHT22;3733;47.994;8.820;2023-09-19T04:17:29;15.10;99.90
7384;DHT22;3733;47.994;8.820;2023-09-19T04:19:54;15.10;99.90
7384;DHT22;3733;47.994;8.820;2023-09-19T04:22:20;15.10;99.90
7384;DHT22;3733;47.994;8.820;2023-09-19T04:24:45;15.10;99.90
7384;DHT22;3733;47.994;8.820;2023-09-19T04:27:11;15.10;99.90
7384;DHT22;3733;47.994;8.820;2023-09-19T04:29:40;15.10;99.90
7384;DHT22;3733;47.994;8.820;2023-09-19T04:32:07;15.10;99.90
7384;DHT22;3733;47.994;8.820;2023-09-19T04:34:33;15.10;99.90
7384;DHT22;3733;47.994;8.820;2023-09-19T04:37:00;15.00;99.90
7384;DHT22;3733;47.994;8.820;2023-09-19T04:39:26;15.00;99.90
7384;DHT22;3733;47.994;8.820;2023-09-19T04:41:52;15.00;99.90
7384;DHT22;3733;47.994;8.820;2023-09-19T04:44:18;15.00;99.90
7384;DHT22;3733;47.994;8.820;2023-09-19T04:46:44;15.00;99.90
7384;DHT22;3733;47.994;8.820;2023-09-19T04:49:11;15.00;99.90
7384;DHT22;3733;47.994;8.820;2023-09-19T04:51:37;14.90;99.90
7384;DHT22;3733;47.994;8.820;2023-09-19T04:54:04;14.90;99.90
7384;DHT22;3733;47.994;8.820;2023-09-19T04:56:29;14.90;99.90
7384;DHT22;3733;47.994;8.820;2023-09-19T04:59:00;14.90;99.90
7384;DHT22;3733;47.994;8.820;2023-09-19T05:01:26;14.90;99.90
7384;DHT22;3733;47.994;8.820;2023-09-19T05:03:52;14.90;99.90
7384;DHT22;3733;47.994;8.820;2023-09-19T05:06:19;14.90;99.90
7384;DHT22;3733;47.994;8.820;2023-09-19T05:08:46;14.90;99.90
7384;DHT22;3733;47.994;8.820;2023-09-19T05:11:15;14.90;99.90
7384;DHT22;3733;47.994;8.820;2023-09-19T05:13:41;14.90;99.90
7384;DHT22;3733;47.994;8.820;2023-09-19T05:16:06;14.90;99.90
7384;DHT22;3733;47.994;8.820;2023-09-19T05:18:35;14.90;99.90
7384;DHT22;3733;47.994;8.820;2023-09-19T05:21:02;14.90;99.90
7384;DHT22;3733;47.994;8.820;2023-09-19T05:23:28;14.90;99.90
7384;DHT22;3733;47.994;8.820;2023-09-19T05:25:54;14.90;99.90
7384;DHT22;3733;47.994;8.820;2023-09-19T05:28:22;14.90;99.90
7384;DHT22;3733;47.994;8.820;2023-09-19T05:30:47;14.90;99.90
7384;DHT22;3733;47.994;8.820;2023-09-19T05:33:14;14.90;99.90
7384;DHT22;3733;47.994;8.820;2023-09-19T05:35:39;14.90;99.90
7384;DHT22;3733;47.994;8.820;2023-09-19T05:38:07;14.90;99.90
7384;DHT22;3733;47.994;8.820;2023-09-19T05:40:38;14.90;99.90
7384;DHT22;3733;47.994;8.820;2023-09-19T05:43:04;14.90;99.90
7384;DHT22;3733;47.994;8.820;2023-09-19T05:45:31;14.80;99.90
7384;DHT22;3733;47.994;8.820;2023-09-19T05:48:10;14.80;99.90
7384;DHT22;3733;47.994;8.820;2023-09-19T05:50:37;14.80;99.90
7384;DHT22;3733;47.994;8.820;2023-09-19T05:53:04;14.80;99.90
7384;DHT22;3733;47.994;8.820;2023-09-19T05:55:30;14.80;99.90
7384;DHT22;3733;47.994;8.820;2023-09-19T05:57:56;14.80;99.90
7384;DHT22;3733;47.994;8.820;2023-09-19T06:00:23;14.90;99.90
7384;DHT22;3733;47.994;8.820;2023-09-19T06:02:56;14.90;99.90
7384;DHT22;3733;47.994;8.820;2023-09-19T06:05:26;15.00;99.90
7384;DHT22;3733;47.994;8.820;2023-09-19T06:07:52;15.00;99.90
7384;DHT22;3733;47.994;8.820;2023-09-19T06:10:18;15.00;99.90
7384;DHT22;3733;47.994;8.820;2023-09-19T06:12:46;15.10;99.90
7384;DHT22;3733;47.994;8.820;2023-09-19T06:15:13;15.10;99.90
7384;DHT22;3733;47.994;8.820;2023-09-19T06:17:47;15.20;99.90
7384;DHT22;3733;47.994;8.820;2023-09-19T06:20:14;15.20;99.90
7384;DHT22;3733;47.994;8.820;2023-09-19T06:22:43;15.20;99.90
7384;DHT22;3733;47.994;8.820;2023-09-19T06:25:11;15.20;99.90
7384;DHT22;3733;47.994;8.820;2023-09-19T06:27:38;15.30;99.90
7384;DHT22;3733;47.994;8.820;2023-09-19T06:30:07;15.30;99.90
7384;DHT22;3733;47.994;8.820;2023-09-19T06:32:33;15.30;99.90
7384;DHT22;3733;47.994;8.820;2023-09-19T06:34:59;15.30;99.90
7384;DHT22;3733;47.994;8.820;2023-09-19T06:37:29;15.40;99.90
7384;DHT22;3733;47.994;8.820;2023-09-19T06:39:55;15.40;99.90
7384;DHT22;3733;47.994;8.820;2023-09-19T06:42:22;15.40;99.90
7384;DHT22;3733;47.994;8.820;2023-09-19T06:44:49;15.50;99.90
7384;DHT22;3733;47.994;8.820;2023-09-19T06:47:14;15.50;99.90
7384;DHT22;3733;47.994;8.820;2023-09-19T06:49:42;15.50;99.90
7384;DHT22;3733;47.994;8.820;2023-09-19T06:52:10;15.50;99.90
7384;DHT22;3733;47.994;8.820;2023-09-19T06:54:36;15.60;99.90
7384;DHT22;3733;47.994;8.820;2023-09-19T06:57:03;15.70;99.90
7384;DHT22;3733;47.994;8.820;2023-09-19T06:59:28;15.70;99.90
7384;DHT22;3733;47.994;8.820;2023-09-19T07:01:54;15.80;99.90
7384;DHT22;3733;47.994;8.820;2023-09-19T07:04:20;15.90;99.90
7384;DHT22;3733;47.994;8.820;2023-09-19T07:06:51;16.00;99.90
7384;DHT22;3733;47.994;8.820;2023-09-19T07:09:17;16.00;99.90
7384;DHT22;3733;47.994;8.820;2023-09-19T07:11:45;16.10;99.90
7384;DHT22;3733;47.994;8.820;2023-09-19T07:14:10;16.10;99.90
7384;DHT22;3733;47.994;8.820;2023-09-19T07:16:39;16.20;99.90
7384;DHT22;3733;47.994;8.820;2023-09-19T07:19:08;16.20;99.90
7384;DHT22;3733;47.994;8.820;2023-09-19T07:21:33;16.20;99.90
7384;DHT22;3733;47.994;8.820;2023-09-19T07:24:00;16.20;99.90
7384;DHT22;3733;47.994;8.820;2023-09-19T07:26:26;16.20;99.90
7384;DHT22;3733;47.994;8.820;2023-09-19T07:28:53;16.20;99.90
7384;DHT22;3733;47.994;8.820;2023-09-19T07:31:19;16.20;99.90
7384;DHT22;3733;47.994;8.820;2023-09-19T07:33:45;16.30;99.90
7384;DHT22;3733;47.994;8.820;2023-09-19T07:36:11;16.30;99.90
7384;DHT22;3733;47.994;8.820;2023-09-19T07:38:41;16.40;99.90
7384;DHT22;3733;47.994;8.820;2023-09-19T07:41:08;16.40;99.90
7384;DHT22;3733;47.994;8.820;2023-09-19T07:43:36;16.50;99.90
7384;DHT22;3733;47.994;8.820;2023-09-19T07:46:05;16.50;99.90
7384;DHT22;3733;47.994;8.820;2023-09-19T07:48:33;16.60;99.90
7384;DHT22;3733;47.994;8.820;2023-09-19T07:51:03;16.70;99.90
7384;DHT22;3733;47.994;8.820;2023-09-19T07:53:29;16.80;99.90
7384;DHT22;3733;47.994;8.820;2023-09-19T07:56:05;16.80;99.90
7384;DHT22;3733;47.994;8.820;2023-09-19T07:58:31;16.90;99.90
7384;DHT22;3733;47.994;8.820;2023-09-19T08:01:09;17.00;99.90
7384;DHT22;3733;47.994;8.820;2023-09-19T08:03:36;17.00;99.90
7384;DHT22;3733;47.994;8.820;2023-09-19T08:06:08;17.10;99.90
7384;DHT22;3733;47.994;8.820;2023-09-19T08:08:34;17.10;99.90
7384;DHT22;3733;47.994;8.820;2023-09-19T08:11:04;17.20;99.90
7384;DHT22;3733;47.994;8.820;2023-09-19T08:13:38;17.30;99.90
7384;DHT22;3733;47.994;8.820;2023-09-19T08:16:09;17.40;99.90
7384;DHT22;3733;47.994;8.820;2023-09-19T08:18:35;17.40;99.90
7384;DHT22;3733;47.994;8.820;2023-09-19T08:21:01;17.50;99.90
7384;DHT22;3733;47.994;8.820;2023-09-19T08:23:26;17.60;99.90
7384;DHT22;3733;47.994;8.820;2023-09-19T08:25:56;17.60;99.90
7384;DHT22;3733;47.994;8.820;2023-09-19T08:28:22;17.60;99.90
7384;DHT22;3733;47.994;8.820;2023-09-19T08:30:50;17.70;99.90
7384;DHT22;3733;47.994;8.820;2023-09-19T08:33:16;17.90;99.90
7384;DHT22;3733;47.994;8.820;2023-09-19T08:35:42;18.00;99.90
7384;DHT22;3733;47.994;8.820;2023-09-19T08:38:08;18.10;99.90
7384;DHT22;3733;47.994;8.820;2023-09-19T08:40:38;18.10;99.90
7384;DHT22;3733;47.994;8.820;2023-09-19T08:43:05;18.10;99.90
7384;DHT22;3733;47.994;8.820;2023-09-19T08:45:33;18.20;99.90
7384;DHT22;3733;47.994;8.820;2023-09-19T08:53:19;18.20;99.90
7384;DHT22;3733;47.994;8.820;2023-09-19T08:55:49;18.20;99.90
7384;DHT22;3733;47.994;8.820;2023-09-19T08:58:17;18.10;99.90
7384;DHT22;3733;47.994;8.820;2023-09-19T09:00:48;18.10;99.90
7384;DHT22;3733;47.994;8.820;2023-09-19T09:03:16;18.10;99.90
7384;DHT22;3733;47.994;8.820;2023-09-19T09:05:44;18.20;99.90
7384;DHT22;3733;47.994;8.820;2023-09-19T09:08:12;18.30;99.80
7384;DHT22;3733;47.994;8.820;2023-09-19T09:10:38;18.40;99.90
7384;DHT22;3733;47.994;8.820;2023-09-19T09:13:06;18.50;99.90
7384;DHT22;3733;47.994;8.820;2023-09-19T09:15:35;18.60;96.30
7384;DHT22;3733;47.994;8.820;2023-09-19T09:18:02;18.60;95.00
7384;DHT22;3733;47.994;8.820;2023-09-19T09:20:30;18.60;93.00
7384;DHT22;3733;47.994;8.820;2023-09-19T09:22:56;18.50;91.50
7384;DHT22;3733;47.994;8.820;2023-09-19T09:28:20;18.40;92.90
7384;DHT22;3733;47.994;8.820;2023-09-19T09:30:46;18.50;90.20
7384;DHT22;3733;47.994;8.820;2023-09-19T09:33:13;18.60;84.90
7384;DHT22;3733;47.994;8.820;2023-09-19T09:35:58;18.80;84.40
7384;DHT22;3733;47.994;8.820;2023-09-19T09:38:44;18.90;81.60
7384;DHT22;3733;47.994;8.820;2023-09-19T09:41:10;19.10;79.40
7384;DHT22;3733;47.994;8.820;2023-09-19T09:43:41;19.40;86.20
7384;DHT22;3733;47.994;8.820;2023-09-19T09:46:14;19.70;85.80
7384;DHT22;3733;47.994;8.820;2023-09-19T09:49:02;20.00;71.40
7384;DHT22;3733;47.994;8.820;2023-09-19T09:51:51;20.20;69.40
7384;DHT22;3733;47.994;8.820;2023-09-19T09:54:26;20.20;66.80
7384;DHT22;3733;47.994;8.820;2023-09-19T09:57:00;20.20;65.00
7384;DHT22;3733;47.994;8.820;2023-09-19T10:02:17;20.00;63.60
7384;DHT22;3733;47.994;8.820;2023-09-19T10:04:59;19.90;66.60
7384;DHT22;3733;47.994;8.820;2023-09-19T10:07:36;20.00;69.10
7384;DHT22;3733;47.994;8.820;2023-09-19T10:10:04;20.20;69.20
7384;DHT22;3733;47.994;8.820;2023-09-19T10:12:47;20.20;67.70
7384;DHT22;3733;47.994;8.820;2023-09-19T10:15:15;20.20;69.20
7384;DHT22;3733;47.994;8.820;2023-09-19T10:17:45;20.20;72.80
7384;DHT22;3733;47.994;8.820;2023-09-19T10:20:15;20.20;69.00
7384;DHT22;3733;47.994;8.820;2023-09-19T10:23:00;20.20;65.90
7384;DHT22;3733;47.994;8.820;2023-09-19T10:25:27;20.00;65.90
7384;DHT22;3733;47.994;8.820;2023-09-19T10:28:01;19.80;65.80
7384;DHT22;3733;47.994;8.820;2023-09-19T10:30:33;19.60;65.30
7384;DHT22;3733;47.994;8.820;2023-09-19T10:33:03;19.40;67.20
7384;DHT22;3733;47.994;8.820;2023-09-19T10:35:29;19.20;68.10
7384;DHT22;3733;47.994;8.820;2023-09-19T10:38:00;19.00;71.10
7384;DHT22;3733;47.994;8.820;2023-09-19T10:40:29;18.90;74.10
7384;DHT22;3733;47.994;8.820;2023-09-19T10:43:03;18.90;71.20
7384;DHT22;3733;47.994;8.820;2023-09-19T10:45:35;18.80;69.80
7384;DHT22;3733;47.994;8.820;2023-09-19T10:48:02;18.80;71.30
7384;DHT22;3733;47.994;8.820;2023-09-19T10:50:50;18.80;71.20
7384;DHT22;3733;47.994;8.820;2023-09-19T10:53:17;18.80;71.20
7384;DHT22;3733;47.994;8.820;2023-09-19T10:56:03;18.80;69.80
7384;DHT22;3733;47.994;8.820;2023-09-19T10:58:35;18.70;69.10
7384;DHT22;3733;47.994;8.820;2023-09-19T11:01:04;18.80;73.60
7384;DHT22;3733;47.994;8.820;2023-09-19T11:03:34;18.90;72.40
7384;DHT22;3733;47.994;8.820;2023-09-19T11:06:16;19.10;70.50
7384;DHT22;3733;47.994;8.820;2023-09-19T11:09:02;19.20;70.00
7384;DHT22;3733;47.994;8.820;2023-09-19T11:11:49;19.30;70.50
7384;DHT22;3733;47.994;8.820;2023-09-19T11:30:42;19.60;64.20
7384;DHT22;3733;47.994;8.820;2023-09-19T11:33:30;19.70;63.80
7384;DHT22;3733;47.994;8.820;2023-09-19T11:43:48;19.70;62.60
7384;DHT22;3733;47.994;8.820;2023-09-19T11:46:16;19.70;61.30
7384;DHT22;3733;47.994;8.820;2023-09-19T11:48:47;19.80;62.80
7384;DHT22;3733;47.994;8.820;2023-09-19T11:51:16;19.80;62.30
7384;DHT22;3733;47.994;8.820;2023-09-19T11:53:49;20.00;64.00
7384;DHT22;3733;47.994;8.820;2023-09-19T11:56:16;20.30;62.40
7384;DHT22;3733;47.994;8.820;2023-09-19T11:58:44;20.80;63.30
7384;DHT22;3733;47.994;8.820;2023-09-19T12:01:13;21.30;61.10
7384;DHT22;3733;47.994;8.820;2023-09-19T12:03:46;21.60;58.10
7384;DHT22;3733;47.994;8.820;2023-09-19T12:06:15;21.50;56.90
7384;DHT22;3733;47.994;8.820;2023-09-19T12:08:42;21.30;56.50
7384;DHT22;3733;47.994;8.820;2023-09-19T12:11:17;21.00;56.30
7384;DHT22;3733;47.994;8.820;2023-09-19T12:13:46;20.80;57.00
7384;DHT22;3733;47.994;8.820;2023-09-19T12:16:13;21.00;56.40
7384;DHT22;3733;47.994;8.820;2023-09-19T12:18:40;21.20;54.80
7384;DHT22;3733;47.994;8.820;2023-09-19T12:21:21;21.30;54.30
7384;DHT22;3733;47.994;8.820;2023-09-19T12:24:07;21.30;54.80
7384;DHT22;3733;47.994;8.820;2023-09-19T12:26:45;21.30;54.40
7384;DHT22;3733;47.994;8.820;2023-09-19T12:29:17;21.30;54.10
7384;DHT22;3733;47.994;8.820;2023-09-19T12:31:58;21.60;53.50
7384;DHT22;3733;47.994;8.820;2023-09-19T12:34:28;22.00;53.40
7384;DHT22;3733;47.994;8.820;2023-09-19T12:39:44;22.50;51.10
7384;DHT22;3733;47.994;8.820;2023-09-19T12:42:15;22.20;50.80
7384;DHT22;3733;47.994;8.820;2023-09-19T12:44:42;21.80;50.80
7384;DHT22;3733;47.994;8.820;2023-09-19T12:47:17;21.50;52.00
7384;DHT22;3733;47.994;8.820;2023-09-19T12:52:37;21.20;52.60
7384;DHT22;3733;47.994;8.820;2023-09-19T12:55:03;21.40;53.00
7384;DHT22;3733;47.994;8.820;2023-09-19T12:57:30;21.50;52.40
7384;DHT22;3733;47.994;8.820;2023-09-19T13:00:03;21.30;52.40
7384;DHT22;3733;47.994;8.820;2023-09-19T13:02:31;21.30;52.30
7384;DHT22;3733;47.994;8.820;2023-09-19T13:04:58;21.20;51.60
7384;DHT22;3733;47.994;8.820;2023-09-19T13:07:42;21.00;51.50
7384;DHT22;3733;47.994;8.820;2023-09-19T13:10:12;21.00;52.10
7384;DHT22;3733;47.994;8.820;2023-09-19T13:12:42;21.30;51.50
7384;DHT22;3733;47.994;8.820;2023-09-19T13:15:10;21.80;51.30
7384;DHT22;3733;47.994;8.820;2023-09-19T13:17:49;22.30;50.40
7384;DHT22;3733;47.994;8.820;2023-09-19T13:20:25;22.80;49.60
7384;DHT22;3733;47.994;8.820;2023-09-19T13:22:55;23.20;48.30
7384;DHT22;3733;47.994;8.820;2023-09-19T13:25:25;23.30;47.30
7384;DHT22;3733;47.994;8.820;2023-09-19T13:27:55;23.20;46.80
7384;DHT22;3733;47.994;8.820;2023-09-19T13:30:22;23.10;47.40
7384;DHT22;3733;47.994;8.820;2023-09-19T13:32:50;23.20;48.00
7384;DHT22;3733;47.994;8.820;2023-09-19T13:35:16;23.10;48.10
7384;DHT22;3733;47.994;8.820;2023-09-19T13:37:43;23.00;48.70
7384;DHT22;3733;47.994;8.820;2023-09-19T13:40:13;23.20;48.70
7384;DHT22;3733;47.994;8.820;2023-09-19T13:42:39;23.50;48.70
7384;DHT22;3733;47.994;8.820;2023-09-19T13:45:06;23.50;48.80
7384;DHT22;3733;47.994;8.820;2023-09-19T13:47:32;23.30;48.50
7384;DHT22;3733;47.994;8.820;2023-09-19T13:49:58;23.10;48.00
7384;DHT22;3733;47.994;8.820;2023-09-19T13:52:24;22.80;48.40
7384;DHT22;3733;47.994;8.820;2023-09-19T13:54:53;22.50;49.10
7384;DHT22;3733;47.994;8.820;2023-09-19T13:57:19;22.20;50.00
7384;DHT22;3733;47.994;8.820;2023-09-19T13:59:45;22.20;50.70
7384;DHT22;3733;47.994;8.820;2023-09-19T14:02:10;22.50;50.90
7384;DHT22;3733;47.994;8.820;2023-09-19T14:04:36;22.40;50.50
7384;DHT22;3733;47.994;8.820;2023-09-19T14:07:02;22.30;50.50
7384;DHT22;3733;47.994;8.820;2023-09-19T14:09:29;22.10;50.30
7384;DHT22;3733;47.994;8.820;2023-09-19T14:11:55;22.50;49.30
7384;DHT22;3733;47.994;8.820;2023-09-19T14:14:21;22.70;48.40
7384;DHT22;3733;47.994;8.820;2023-09-19T14:16:47;22.70;48.30
7384;DHT22;3733;47.994;8.820;2023-09-19T14:19:13;22.90;48.70
7384;DHT22;3733;47.994;8.820;2023-09-19T14:21:42;23.30;48.50
7384;DHT22;3733;47.994;8.820;2023-09-19T14:24:08;23.40;48.10
7384;DHT22;3733;47.994;8.820;2023-09-19T14:26:38;23.80;47.80
7384;DHT22;3733;47.994;8.820;2023-09-19T14:29:04;24.20;46.90
7384;DHT22;3733;47.994;8.820;2023-09-19T14:31:33;24.40;47.50
7384;DHT22;3733;47.994;8.820;2023-09-19T14:33:59;24.70;47.10
7384;DHT22;3733;47.994;8.820;2023-09-19T14:36:25;24.90;46.40
7384;DHT22;3733;47.994;8.820;2023-09-19T14:38:55;24.80;46.20
7384;DHT22;3733;47.994;8.820;2023-09-19T14:41:21;24.90;46.30
7384;DHT22;3733;47.994;8.820;2023-09-19T14:43:48;25.30;46.90
7384;DHT22;3733;47.994;8.820;2023-09-19T14:46:14;25.80;45.70
7384;DHT22;3733;47.994;8.820;2023-09-19T14:48:40;26.00;43.80
7384;DHT22;3733;47.994;8.820;2023-09-19T14:51:09;25.90;44.20
7384;DHT22;3733;47.994;8.820;2023-09-19T14:53:35;25.80;44.30
7384;DHT22;3733;47.994;8.820;2023-09-19T14:56:02;25.70;43.20
7384;DHT22;3733;47.994;8.820;2023-09-19T14:58:34;25.60;44.00
7384;DHT22;3733;47.994;8.820;2023-09-19T15:01:07;25.70;44.70
7384;DHT22;3733;47.994;8.820;2023-09-19T15:03:34;25.30;44.20
7384;DHT22;3733;47.994;8.820;2023-09-19T15:06:04;25.10;45.00
7384;DHT22;3733;47.994;8.820;2023-09-19T15:08:31;24.80;45.70
7384;DHT22;3733;47.994;8.820;2023-09-19T15:10:56;24.50;45.90
7384;DHT22;3733;47.994;8.820;2023-09-19T15:13:24;24.10;46.90
7384;DHT22;3733;47.994;8.820;2023-09-19T15:16:07;23.70;47.30
7384;DHT22;3733;47.994;8.820;2023-09-19T15:18:37;23.40;48.20
7384;DHT22;3733;47.994;8.820;2023-09-19T15:21:04;23.00;49.20
7384;DHT22;3733;47.994;8.820;2023-09-19T15:23:31;22.80;49.50
7384;DHT22;3733;47.994;8.820;2023-09-19T15:25:58;22.60;49.20
7384;DHT22;3733;47.994;8.820;2023-09-19T15:28:23;22.30;49.80
7384;DHT22;3733;47.994;8.820;2023-09-19T15:30:50;22.20;50.70
7384;DHT22;3733;47.994;8.820;2023-09-19T15:33:15;22.00;49.70
7384;DHT22;3733;47.994;8.820;2023-09-19T15:35:41;21.80;50.10
7384;DHT22;3733;47.994;8.820;2023-09-19T15:38:07;21.70;51.00
7384;DHT22;3733;47.994;8.820;2023-09-19T15:40:33;21.60;51.10
7384;DHT22;3733;47.994;8.820;2023-09-19T15:42:59;21.50;51.50
7384;DHT22;3733;47.994;8.820;2023-09-19T15:45:26;21.50;52.00
7384;DHT22;3733;47.994;8.820;2023-09-19T15:47:51;21.30;52.20
7384;DHT22;3733;47.994;8.820;2023-09-19T15:50:18;21.30;52.10
7384;DHT22;3733;47.994;8.820;2023-09-19T15:52:44;21.20;52.30
7384;DHT22;3733;47.994;8.820;2023-09-19T15:55:10;21.10;52.80
7384;DHT22;3733;47.994;8.820;2023-09-19T15:57:37;21.00;52.50
7384;DHT22;3733;47.994;8.820;2023-09-19T16:00:03;21.00;53.10
7384;DHT22;3733;47.994;8.820;2023-09-19T16:02:35;21.00;53.70
7384;DHT22;3733;47.994;8.820;2023-09-19T16:05:01;20.90;53.70
7384;DHT22;3733;47.994;8.820;2023-09-19T16:07:31;20.90;54.50
7384;DHT22;3733;47.994;8.820;2023-09-19T16:09:57;20.80;54.60
7384;DHT22;3733;47.994;8.820;2023-09-19T16:12:24;20.80;55.30
7384;DHT22;3733;47.994;8.820;2023-09-19T16:14:50;20.70;54.70
7384;DHT22;3733;47.994;8.820;2023-09-19T16:17:15;20.60;55.00
7384;DHT22;3733;47.994;8.820;2023-09-19T16:19:41;20.60;55.30
7384;DHT22;3733;47.994;8.820;2023-09-19T16:22:09;20.50;55.50
7384;DHT22;3733;47.994;8.820;2023-09-19T16:24:35;20.40;55.60
7384;DHT22;3733;47.994;8.820;2023-09-19T16:27:00;20.40;56.20
7384;DHT22;3733;47.994;8.820;2023-09-19T16:29:26;20.30;56.60
7384;DHT22;3733;47.994;8.820;2023-09-19T16:31:52;20.30;57.80
7384;DHT22;3733;47.994;8.820;2023-09-19T16:34:18;20.20;57.40
7384;DHT22;3733;47.994;8.820;2023-09-19T16:36:43;20.20;57.90
7384;DHT22;3733;47.994;8.820;2023-09-19T16:39:09;20.10;58.50
7384;DHT22;3733;47.994;8.820;2023-09-19T16:41:36;20.00;59.20
7384;DHT22;3733;47.994;8.820;2023-09-19T16:44:02;20.00;59.60
7384;DHT22;3733;47.994;8.820;2023-09-19T16:46:32;20.00;60.30
7384;DHT22;3733;47.994;8.820;2023-09-19T16:48:59;19.90;60.90
7384;DHT22;3733;47.994;8.820;2023-09-19T16:51:25;19.90;62.00
7384;DHT22;3733;47.994;8.820;2023-09-19T16:53:52;19.80;63.90
7384;DHT22;3733;47.994;8.820;2023-09-19T16:56:20;19.70;63.30
7384;DHT22;3733;47.994;8.820;2023-09-19T16:58:47;19.70;64.50
7384;DHT22;3733;47.994;8.820;2023-09-19T17:01:15;19.70;64.90
7384;DHT22;3733;47.994;8.820;2023-09-19T17:03:41;19.60;64.60
7384;DHT22;3733;47.994;8.820;2023-09-19T17:06:12;19.60;64.90
7384;DHT22;3733;47.994;8.820;2023-09-19T17:08:40;19.60;67.40
7384;DHT22;3733;47.994;8.820;2023-09-19T17:11:13;19.50;71.10